createdAt,value
2019-05-25T00:00:46.986Z,0.00
2019-05-25T00:01:46.946Z,0.00
2019-05-25T00:02:46.978Z,0.00
2019-05-25T00:03:46.926Z,0.00
2019-05-25T00:04:46.935Z,0.00
2019-05-25T00:05:46.907Z,0.00
2019-05-25T00:06:46.914Z,0.00
2019-05-25T00:07:46.896Z,0.00
2019-05-25T00:08:46.867Z,0.00
2019-05-25T00:09:48.550Z,0.00
2019-05-25T00:10:46.847Z,0.00
2019-05-25T00:11:46.857Z,0.00
2019-05-25T00:12:46.824Z,0.00
2019-05-25T00:13:46.835Z,0.00
2019-05-25T00:14:46.800Z,0.00
2019-05-25T00:15:46.817Z,0.00
2019-05-25T00:16:46.797Z,0.00
2019-05-25T00:17:46.768Z,0.00
2019-05-25T00:18:46.781Z,0.00
2019-05-25T00:19:46.745Z,0.00
2019-05-25T00:20:46.736Z,0.00
2019-05-25T00:21:46.726Z,0.00
2019-05-25T00:22:46.714Z,0.00
2019-05-25T00:23:46.729Z,0.00
2019-05-25T00:24:46.688Z,0.00
2019-05-25T00:25:46.679Z,0.00
2019-05-25T00:26:46.665Z,0.00
2019-05-25T00:27:46.656Z,0.00
2019-05-25T00:28:46.672Z,0.00
2019-05-25T00:29:46.644Z,0.00
2019-05-25T00:30:46.637Z,0.00
2019-05-25T00:31:46.612Z,0.00
2019-05-25T00:32:46.598Z,0.00
2019-05-25T00:33:46.587Z,0.00
2019-05-25T00:34:46.597Z,0.00
2019-05-25T00:35:46.566Z,0.00
2019-05-25T00:36:46.554Z,0.00
2019-05-25T00:37:46.541Z,0.00
2019-05-25T00:38:46.552Z,0.00
2019-05-25T00:39:46.522Z,0.00
2019-05-25T00:40:46.510Z,0.00
2019-05-25T00:41:46.503Z,0.00
2019-05-25T00:42:46.513Z,0.00
2019-05-25T00:43:46.474Z,0.00
2019-05-25T00:44:46.465Z,0.00
2019-05-25T00:45:46.468Z,0.00
2019-05-25T00:46:46.445Z,0.00
2019-05-25T00:47:46.429Z,0.00
2019-05-25T00:48:46.442Z,0.00
2019-05-25T00:49:46.408Z,0.00
2019-05-25T00:50:46.397Z,0.00
2019-05-25T00:51:46.394Z,0.00
2019-05-25T00:52:46.375Z,0.00
2019-05-25T00:53:46.391Z,0.00
2019-05-25T00:54:46.351Z,0.00
2019-05-25T00:55:46.339Z,0.00
2019-05-25T00:56:46.330Z,0.00
2019-05-25T00:57:46.317Z,0.00
2019-05-25T00:58:46.336Z,0.00
2019-05-25T00:59:46.294Z,0.00
2019-05-25T01:00:46.289Z,0.00
2019-05-25T01:01:46.272Z,0.00
2019-05-25T01:02:46.290Z,0.00
2019-05-25T01:03:46.275Z,0.00
2019-05-25T01:04:46.239Z,0.00
2019-05-25T01:05:46.228Z,0.00
2019-05-25T01:06:46.216Z,0.00
2019-05-25T01:07:46.229Z,0.00
2019-05-25T01:08:46.196Z,0.00
2019-05-25T01:09:46.187Z,0.00
2019-05-25T01:10:46.173Z,0.00
2019-05-25T01:11:46.162Z,0.00
2019-05-25T01:12:46.167Z,0.00
2019-05-25T01:13:46.138Z,0.00
2019-05-25T01:14:46.127Z,0.00
2019-05-25T01:15:46.115Z,0.00
2019-05-25T01:16:46.117Z,0.00
2019-05-25T01:17:46.114Z,0.00
2019-05-25T01:18:46.084Z,0.00
2019-05-25T01:19:46.095Z,0.00
2019-05-25T01:20:46.059Z,0.00
2019-05-25T01:21:46.047Z,0.00
2019-05-25T01:22:46.059Z,0.00
2019-05-25T01:23:46.026Z,0.00
2019-05-25T01:24:46.014Z,0.00
2019-05-25T01:25:46.007Z,0.00
2019-05-25T01:26:46.017Z,0.00
2019-05-25T01:27:45.980Z,0.00
2019-05-25T01:28:45.970Z,0.00
2019-05-25T01:29:45.964Z,0.00
2019-05-25T01:30:45.970Z,0.00
2019-05-25T01:31:45.936Z,0.00
2019-05-25T01:32:45.949Z,0.00
2019-05-25T01:33:45.914Z,0.00
2019-05-25T01:34:45.901Z,0.00
2019-05-25T01:35:45.937Z,0.00
2019-05-25T01:36:45.881Z,0.00
2019-05-25T01:37:48.466Z,0.00
2019-05-25T01:38:45.856Z,0.00
2019-05-25T01:39:45.934Z,0.00
2019-05-25T01:40:45.855Z,0.00
2019-05-25T01:41:45.862Z,0.00
2019-05-25T01:42:45.811Z,0.00
2019-05-25T01:43:45.817Z,0.00
2019-05-25T01:44:45.788Z,0.00
2019-05-25T01:45:45.837Z,0.00
2019-05-25T01:46:45.769Z,0.00
2019-05-25T01:47:45.754Z,0.00
2019-05-25T01:48:45.743Z,0.00
2019-05-25T01:49:45.734Z,0.00
2019-05-25T01:50:45.743Z,0.00
2019-05-25T01:51:45.713Z,0.00
2019-05-25T01:52:45.732Z,0.00
2019-05-25T01:53:45.724Z,0.00
2019-05-25T01:54:59.053Z,0.00
2019-05-25T01:55:46.662Z,0.00
2019-05-25T01:56:45.654Z,0.00
2019-05-25T01:57:45.663Z,0.00
2019-05-25T01:58:45.633Z,0.00
2019-05-25T01:59:45.618Z,0.00
2019-05-25T02:00:45.607Z,0.00
2019-05-25T02:01:45.607Z,0.00
2019-05-25T02:02:45.608Z,0.00
2019-05-25T02:03:45.575Z,0.00
2019-05-25T02:04:45.562Z,0.00
2019-05-25T02:05:45.574Z,0.00
2019-05-25T02:06:45.540Z,0.00
2019-05-25T02:07:45.538Z,0.00
2019-05-25T02:08:45.517Z,0.00
2019-05-25T02:09:45.507Z,0.00
2019-05-25T02:10:45.518Z,0.00
2019-05-25T02:11:45.489Z,0.00
2019-05-25T02:12:45.472Z,0.00
2019-05-25T02:13:45.486Z,0.00
2019-05-25T02:14:45.449Z,0.00
2019-05-25T02:15:45.438Z,0.00
2019-05-25T02:16:45.427Z,0.00
2019-05-25T02:17:45.499Z,0.00
2019-05-25T02:18:45.838Z,0.00
2019-05-25T02:19:45.396Z,0.00
2019-05-25T02:20:45.382Z,0.00
2019-05-25T02:21:45.371Z,0.00
2019-05-25T02:22:45.382Z,0.00
2019-05-25T02:23:45.408Z,0.00
2019-05-25T02:24:45.336Z,0.00
2019-05-25T02:25:45.325Z,0.00
2019-05-25T02:26:45.316Z,0.00
2019-05-25T02:27:45.330Z,0.00
2019-05-25T02:28:45.293Z,0.00
2019-05-25T02:29:45.280Z,0.00
2019-05-25T02:30:45.295Z,0.00
2019-05-25T02:31:45.257Z,0.00
2019-05-25T02:32:45.249Z,0.00
2019-05-25T02:33:45.254Z,0.00
2019-05-25T02:34:45.224Z,0.00
2019-05-25T02:35:45.235Z,4.00
2019-05-25T02:36:45.201Z,4.00
2019-05-25T02:37:45.190Z,0.00
2019-05-25T02:38:45.189Z,0.00
2019-05-25T02:39:45.195Z,0.00
2019-05-25T02:40:45.157Z,4.00
2019-05-25T02:41:45.162Z,4.00
2019-05-25T02:42:45.135Z,0.00
2019-05-25T02:43:45.144Z,4.00
2019-05-25T02:44:45.112Z,4.00
2019-05-25T02:45:45.156Z,4.00
2019-05-25T02:46:45.134Z,4.00
2019-05-25T02:47:45.079Z,4.00
2019-05-25T02:48:45.096Z,8.00
2019-05-25T02:49:45.055Z,8.00
2019-05-25T02:50:45.044Z,8.00
2019-05-25T02:51:45.032Z,8.00
2019-05-25T02:52:45.021Z,12.00
2019-05-25T02:53:45.033Z,12.00
2019-05-25T02:54:44.999Z,12.00
2019-05-25T02:55:44.989Z,16.00
2019-05-25T02:56:44.978Z,20.00
2019-05-25T02:57:44.987Z,20.00
2019-05-25T02:58:44.979Z,24.00
2019-05-25T02:59:44.943Z,24.00
2019-05-25T03:00:44.930Z,28.00
2019-05-25T03:01:44.919Z,32.00
2019-05-25T03:02:44.999Z,36.00
2019-05-25T03:03:44.919Z,40.00
2019-05-25T03:04:44.888Z,44.00
2019-05-25T03:05:45.000Z,48.00
2019-05-25T03:06:44.865Z,52.00
2019-05-25T03:07:44.859Z,60.00
2019-05-25T03:08:44.864Z,64.00
2019-05-25T03:09:44.829Z,68.00
2019-05-25T03:10:44.818Z,72.00
2019-05-25T03:11:44.806Z,80.00
2019-05-25T03:12:44.828Z,88.00
2019-05-25T03:13:44.784Z,96.00
2019-05-25T03:14:44.778Z,104.00
2019-05-25T03:15:44.786Z,112.00
2019-05-25T03:16:44.751Z,124.00
2019-05-25T03:17:44.741Z,132.00
2019-05-25T03:18:44.753Z,144.00
2019-05-25T03:19:44.719Z,152.00
2019-05-25T03:20:44.730Z,164.00
2019-05-25T03:21:44.694Z,176.00
2019-05-25T03:22:44.724Z,192.00
2019-05-25T03:23:44.675Z,204.00
2019-05-25T03:24:44.691Z,216.00
2019-05-25T03:25:49.444Z,236.00
2019-05-25T03:26:45.637Z,248.00
2019-05-25T03:27:44.651Z,260.00
2019-05-25T03:28:44.615Z,280.00
2019-05-25T03:29:44.605Z,300.00
2019-05-25T03:30:44.600Z,324.00
2019-05-25T03:31:44.583Z,348.00
2019-05-25T03:32:44.602Z,372.00
2019-05-25T03:33:44.566Z,392.00
2019-05-25T03:34:44.548Z,416.00
2019-05-25T03:35:44.542Z,440.00
2019-05-25T03:36:44.552Z,460.00
2019-05-25T03:37:44.615Z,480.00
2019-05-25T03:38:44.501Z,500.00
2019-05-25T03:39:44.490Z,520.00
2019-05-25T03:40:44.479Z,544.00
2019-05-25T03:41:44.493Z,568.00
2019-05-25T03:42:44.479Z,592.00
2019-05-25T03:43:44.448Z,620.00
2019-05-25T03:44:44.434Z,640.00
2019-05-25T03:45:44.423Z,660.00
2019-05-25T03:46:44.435Z,680.00
2019-05-25T03:47:44.402Z,696.00
2019-05-25T03:48:44.388Z,712.00
2019-05-25T03:49:44.377Z,724.00
2019-05-25T03:50:44.366Z,720.00
2019-05-25T03:51:44.376Z,728.00
2019-05-25T03:52:44.343Z,764.00
2019-05-25T03:53:44.332Z,800.00
2019-05-25T03:54:44.321Z,828.00
2019-05-25T03:55:44.310Z,824.00
2019-05-25T03:56:44.321Z,800.00
2019-05-25T03:57:44.286Z,760.00
2019-05-25T03:58:44.276Z,736.00
2019-05-25T03:59:44.267Z,740.00
2019-05-25T04:00:44.253Z,736.00
2019-05-25T04:01:44.265Z,740.00
2019-05-25T04:02:44.279Z,748.00
2019-05-25T04:03:44.219Z,832.00
2019-05-25T04:04:44.209Z,836.00
2019-05-25T04:05:44.196Z,828.00
2019-05-25T04:06:44.231Z,832.00
2019-05-25T04:07:44.174Z,860.00
2019-05-25T04:08:44.178Z,932.00
2019-05-25T04:09:44.152Z,956.00
2019-05-25T04:10:44.157Z,916.00
2019-05-25T04:11:44.129Z,964.00
2019-05-25T04:12:44.141Z,1040.00
2019-05-25T04:13:44.110Z,1048.00
2019-05-25T04:14:44.105Z,1056.00
2019-05-25T04:15:44.115Z,1140.00
2019-05-25T04:16:44.074Z,1180.00
2019-05-25T04:17:44.083Z,1220.00
2019-05-25T04:18:44.054Z,1244.00
2019-05-25T04:19:44.062Z,1244.00
2019-05-25T04:20:44.027Z,1356.00
2019-05-25T04:21:44.041Z,1460.00
2019-05-25T04:22:44.005Z,1520.00
2019-05-25T04:23:43.993Z,1744.00
2019-05-25T04:24:43.985Z,1724.00
2019-05-25T04:25:43.977Z,1900.00
2019-05-25T04:26:43.975Z,2048.00
2019-05-25T04:27:43.949Z,2084.00
2019-05-25T04:28:43.938Z,2072.00
2019-05-25T04:29:43.951Z,2068.00
2019-05-25T04:30:43.954Z,2160.00
2019-05-25T04:31:43.905Z,2316.00
2019-05-25T04:32:43.895Z,2348.00
2019-05-25T04:33:43.884Z,2456.00
2019-05-25T04:34:43.893Z,2452.00
2019-05-25T04:35:43.858Z,2124.00
2019-05-25T04:36:43.869Z,2048.00
2019-05-25T04:37:43.840Z,1968.00
2019-05-25T04:38:43.930Z,1744.00
2019-05-25T04:39:43.813Z,1900.00
2019-05-25T04:40:43.831Z,2148.00
2019-05-25T04:41:43.790Z,2336.00
2019-05-25T04:42:43.782Z,2472.00
2019-05-25T04:43:43.817Z,2492.00
2019-05-25T04:44:43.758Z,2668.00
2019-05-25T04:45:43.748Z,2616.00
2019-05-25T04:46:43.736Z,2548.00
2019-05-25T04:47:43.765Z,2448.00
2019-05-25T04:48:43.717Z,2212.00
2019-05-25T04:49:43.701Z,2116.00
2019-05-25T04:50:43.717Z,2264.00
2019-05-25T04:51:43.678Z,2400.00
2019-05-25T04:52:43.672Z,2276.00
2019-05-25T04:53:43.655Z,2024.00
2019-05-25T04:54:43.645Z,2020.00
2019-05-25T04:55:43.658Z,2236.00
2019-05-25T04:56:43.623Z,2432.00
2019-05-25T04:57:43.612Z,2732.00
2019-05-25T04:58:43.624Z,2792.00
2019-05-25T04:59:43.613Z,2796.00
2019-05-25T05:00:43.577Z,2728.00
2019-05-25T05:01:43.565Z,2556.00
2019-05-25T05:02:43.555Z,2580.00
2019-05-25T05:03:43.545Z,2680.00
2019-05-25T05:04:43.573Z,2948.00
2019-05-25T05:05:43.520Z,2912.00
2019-05-25T05:06:43.535Z,2404.00
2019-05-25T05:07:43.497Z,1660.00
2019-05-25T05:08:43.486Z,1240.00
2019-05-25T05:09:43.476Z,1096.00
2019-05-25T05:10:43.489Z,948.00
2019-05-25T05:11:43.486Z,884.00
2019-05-25T05:12:43.500Z,864.00
2019-05-25T05:13:43.430Z,916.00
2019-05-25T05:14:43.419Z,968.00
2019-05-25T05:15:43.407Z,1052.00
2019-05-25T05:16:43.419Z,1264.00
2019-05-25T05:17:43.389Z,1488.00
2019-05-25T05:18:43.374Z,1596.00
2019-05-25T05:19:43.362Z,1604.00
2019-05-25T05:20:43.374Z,1556.00
2019-05-25T05:21:43.339Z,1644.00
2019-05-25T05:22:43.332Z,1712.00
2019-05-25T05:23:43.320Z,1844.00
2019-05-25T05:24:43.306Z,1828.00
2019-05-25T05:25:43.313Z,1812.00
2019-05-25T05:26:55.335Z,1856.00
2019-05-25T05:27:44.270Z,1880.00
2019-05-25T05:28:43.262Z,1996.00
2019-05-25T05:29:43.268Z,2164.00
2019-05-25T05:30:43.298Z,2408.00
2019-05-25T05:31:43.228Z,2480.00
2019-05-25T05:32:43.216Z,2596.00
2019-05-25T05:33:43.224Z,2708.00
2019-05-25T05:34:43.220Z,2688.00
2019-05-25T05:35:43.182Z,2724.00
2019-05-25T05:36:43.172Z,3028.00
2019-05-25T05:37:43.181Z,3100.00
2019-05-25T05:38:43.148Z,3196.00
2019-05-25T05:39:43.143Z,3216.00
2019-05-25T05:40:43.126Z,3128.00
2019-05-25T05:41:43.139Z,3596.00
2019-05-25T05:42:43.114Z,3696.00
2019-05-25T05:43:43.116Z,3180.00
2019-05-25T05:44:43.083Z,2680.00
2019-05-25T05:45:43.080Z,2460.00
2019-05-25T05:46:43.059Z,2444.00
2019-05-25T05:47:43.049Z,2288.00
2019-05-25T05:48:43.058Z,2356.00
2019-05-25T05:49:43.023Z,2584.00
2019-05-25T05:50:43.011Z,2420.00
2019-05-25T05:51:43.001Z,2428.00
2019-05-25T05:52:42.991Z,2204.00
2019-05-25T05:53:42.999Z,1816.00
2019-05-25T05:54:42.966Z,1492.00
2019-05-25T05:55:42.957Z,1340.00
2019-05-25T05:56:42.967Z,1208.00
2019-05-25T05:57:42.940Z,1176.00
2019-05-25T05:58:42.944Z,1208.00
2019-05-25T05:59:42.914Z,1276.00
2019-05-25T06:00:42.908Z,1476.00
2019-05-25T06:01:42.888Z,1684.00
2019-05-25T06:02:42.882Z,1892.00
2019-05-25T06:03:42.895Z,2024.00
2019-05-25T06:04:42.856Z,2024.00
2019-05-25T06:05:42.841Z,1856.00
2019-05-25T06:06:42.830Z,1696.00
2019-05-25T06:07:42.820Z,1620.00
2019-05-25T06:08:42.830Z,1700.00
2019-05-25T06:09:42.798Z,1732.00
2019-05-25T06:10:42.790Z,1708.00
2019-05-25T06:11:42.774Z,1708.00
2019-05-25T06:12:42.767Z,1652.00
2019-05-25T06:13:42.784Z,1532.00
2019-05-25T06:14:42.742Z,1384.00
2019-05-25T06:15:42.730Z,1352.00
2019-05-25T06:16:42.718Z,1400.00
2019-05-25T06:17:42.707Z,1464.00
2019-05-25T06:18:42.721Z,1512.00
2019-05-25T06:19:42.705Z,1388.00
2019-05-25T06:20:42.672Z,1208.00
2019-05-25T06:21:42.682Z,1112.00
2019-05-25T06:22:42.649Z,1124.00
2019-05-25T06:23:42.638Z,1148.00
2019-05-25T06:24:42.647Z,1140.00
2019-05-25T06:25:42.615Z,1084.00
2019-05-25T06:26:42.626Z,1080.00
2019-05-25T06:27:42.610Z,1088.00
2019-05-25T06:28:42.611Z,1156.00
2019-05-25T06:29:42.569Z,1336.00
2019-05-25T06:30:42.558Z,1464.00
2019-05-25T06:31:42.549Z,1528.00
2019-05-25T06:32:42.543Z,1484.00
2019-05-25T06:33:42.546Z,1472.00
2019-05-25T06:34:42.513Z,1540.00
2019-05-25T06:35:42.504Z,1564.00
2019-05-25T06:36:42.529Z,1532.00
2019-05-25T06:37:42.482Z,1568.00
2019-05-25T06:38:42.469Z,1612.00
2019-05-25T06:39:42.458Z,1676.00
2019-05-25T06:40:42.462Z,1668.00
2019-05-25T06:41:42.446Z,1620.00
2019-05-25T06:42:42.425Z,1548.00
2019-05-25T06:43:42.414Z,1388.00
2019-05-25T06:44:42.418Z,1192.00
2019-05-25T06:45:42.413Z,1096.00
2019-05-25T06:46:42.380Z,1132.00
2019-05-25T06:47:42.373Z,1268.00
2019-05-25T06:48:42.389Z,1372.00
2019-05-25T06:49:42.344Z,1424.00
2019-05-25T06:50:42.335Z,1388.00
2019-05-25T06:51:42.322Z,1392.00
2019-05-25T06:52:42.334Z,1484.00
2019-05-25T06:53:42.303Z,1524.00
2019-05-25T06:54:42.290Z,1612.00
2019-05-25T06:55:42.277Z,1692.00
2019-05-25T06:56:42.265Z,1692.00
2019-05-25T06:57:43.806Z,1664.00
2019-05-25T06:58:42.247Z,1764.00
2019-05-25T06:59:42.231Z,2056.00
2019-05-25T07:00:42.221Z,2640.00
2019-05-25T07:01:42.210Z,2912.00
2019-05-25T07:02:42.219Z,2784.00
2019-05-25T07:03:42.186Z,2680.00
2019-05-25T07:04:42.223Z,2900.00
2019-05-25T07:05:42.163Z,2968.00
2019-05-25T07:06:42.199Z,2968.00
2019-05-25T07:07:42.168Z,2916.00
2019-05-25T07:08:42.152Z,2860.00
2019-05-25T07:09:42.118Z,2700.00
2019-05-25T07:10:42.106Z,2592.00
2019-05-25T07:11:42.123Z,2580.00
2019-05-25T07:12:42.109Z,2600.00
2019-05-25T07:13:42.073Z,2816.00
2019-05-25T07:14:42.113Z,2752.00
2019-05-25T07:15:42.058Z,2700.00
2019-05-25T07:16:42.043Z,2704.00
2019-05-25T07:17:42.053Z,2784.00
2019-05-25T07:18:42.019Z,3012.00
2019-05-25T07:19:42.006Z,3320.00
2019-05-25T07:20:41.993Z,3724.00
2019-05-25T07:21:41.980Z,4064.00
2019-05-25T07:22:42.053Z,4088.00
2019-05-25T07:23:41.962Z,3644.00
2019-05-25T07:24:41.947Z,3268.00
2019-05-25T07:25:41.936Z,3052.00
2019-05-25T07:26:41.925Z,2988.00
2019-05-25T07:27:57.881Z,2908.00
2019-05-25T07:28:42.900Z,2672.00
2019-05-25T07:29:41.892Z,2492.00
2019-05-25T07:30:41.882Z,2428.00
2019-05-25T07:31:41.894Z,2504.00
2019-05-25T07:32:41.881Z,2412.00
2019-05-25T07:33:41.847Z,2276.00
2019-05-25T07:34:41.859Z,2220.00
2019-05-25T07:35:41.825Z,2228.00
2019-05-25T07:36:41.811Z,2200.00
2019-05-25T07:37:41.823Z,2160.00
2019-05-25T07:38:41.801Z,2108.00
2019-05-25T07:39:41.786Z,2300.00
2019-05-25T07:40:41.826Z,2572.00
2019-05-25T07:41:41.760Z,2812.00
2019-05-25T07:42:41.804Z,2952.00
2019-05-25T07:43:41.738Z,3004.00
2019-05-25T07:44:41.721Z,2904.00
2019-05-25T07:45:41.734Z,3092.00
2019-05-25T07:46:41.701Z,3336.00
2019-05-25T07:47:41.691Z,3688.00
2019-05-25T07:48:41.676Z,4112.00
2019-05-25T07:49:41.668Z,4600.00
2019-05-25T07:50:41.672Z,4988.00
2019-05-25T07:51:41.643Z,5180.00
2019-05-25T07:52:41.635Z,5332.00
2019-05-25T07:53:41.637Z,5476.00
2019-05-25T07:54:41.615Z,5560.00
2019-05-25T07:55:41.600Z,5676.00
2019-05-25T07:56:41.593Z,6132.00
2019-05-25T07:57:41.598Z,5700.00
2019-05-25T07:58:41.569Z,6104.00
2019-05-25T07:59:41.555Z,6004.00
2019-05-25T08:00:41.544Z,6736.00
2019-05-25T08:01:41.545Z,6172.00
2019-05-25T08:02:41.522Z,5024.00
2019-05-25T08:03:41.515Z,4896.00
2019-05-25T08:04:41.504Z,4208.00
2019-05-25T08:05:41.508Z,4040.00
2019-05-25T08:06:41.475Z,4092.00
2019-05-25T08:07:41.467Z,4208.00
2019-05-25T08:08:41.455Z,4408.00
2019-05-25T08:09:41.441Z,4636.00
2019-05-25T08:10:41.450Z,4804.00
2019-05-25T08:11:41.419Z,5100.00
2019-05-25T08:12:41.415Z,7064.00
2019-05-25T08:13:41.397Z,7792.00
2019-05-25T08:14:44.920Z,6256.00
2019-05-25T08:15:41.376Z,5860.00
2019-05-25T08:16:41.359Z,5304.00
2019-05-25T08:17:41.353Z,4940.00
2019-05-25T08:18:41.373Z,4780.00
2019-05-25T08:19:41.348Z,4580.00
2019-05-25T08:20:41.318Z,4324.00
2019-05-25T08:21:41.305Z,4280.00
2019-05-25T08:22:41.319Z,4456.00
2019-05-25T08:23:41.284Z,4684.00
2019-05-25T08:24:41.278Z,4900.00
2019-05-25T08:25:41.258Z,5176.00
2019-05-25T08:26:41.269Z,5228.00
2019-05-25T08:27:41.261Z,5292.00
2019-05-25T08:28:41.226Z,5316.00
2019-05-25T08:29:41.216Z,5236.00
2019-05-25T08:30:41.211Z,7136.00
2019-05-25T08:31:41.194Z,4864.00
2019-05-25T08:32:41.202Z,4480.00
2019-05-25T08:33:41.192Z,4176.00
2019-05-25T08:34:41.161Z,3952.00
2019-05-25T08:35:41.151Z,3736.00
2019-05-25T08:36:41.136Z,3588.00
2019-05-25T08:37:41.126Z,3524.00
2019-05-25T08:38:41.144Z,3508.00
2019-05-25T08:39:41.102Z,3480.00
2019-05-25T08:40:41.090Z,3484.00
2019-05-25T08:41:41.079Z,3524.00
2019-05-25T08:42:41.074Z,3516.00
2019-05-25T08:43:41.083Z,3528.00
2019-05-25T08:44:41.051Z,3684.00
2019-05-25T08:45:41.035Z,3492.00
2019-05-25T08:46:41.032Z,3504.00
2019-05-25T08:47:41.012Z,3544.00
2019-05-25T08:48:41.073Z,3588.00
2019-05-25T08:49:40.988Z,3600.00
2019-05-25T08:50:40.975Z,3596.00
2019-05-25T08:51:40.968Z,3524.00
2019-05-25T08:52:40.990Z,3440.00
2019-05-25T08:53:42.225Z,3376.00
2019-05-25T08:54:40.974Z,3264.00
2019-05-25T08:55:40.920Z,3160.00
2019-05-25T08:56:40.910Z,3136.00
2019-05-25T08:57:40.924Z,3184.00
2019-05-25T08:58:48.250Z,3128.00
2019-05-25T08:59:41.901Z,3032.00
2019-05-25T09:00:40.873Z,3060.00
2019-05-25T09:01:40.853Z,3084.00
2019-05-25T09:02:40.842Z,3156.00
2019-05-25T09:03:40.862Z,3336.00
2019-05-25T09:04:40.875Z,3620.00
2019-05-25T09:05:40.900Z,4064.00
2019-05-25T09:06:40.796Z,4348.00
2019-05-25T09:07:40.863Z,4400.00
2019-05-25T09:08:40.792Z,4352.00
2019-05-25T09:09:40.773Z,4340.00
2019-05-25T09:10:40.774Z,4280.00
2019-05-25T09:11:40.765Z,4220.00
2019-05-25T09:12:40.791Z,4200.00
2019-05-25T09:13:40.716Z,4160.00
2019-05-25T09:14:40.712Z,4008.00
2019-05-25T09:15:40.720Z,3904.00
2019-05-25T09:16:40.692Z,3816.00
2019-05-25T09:17:40.669Z,3756.00
2019-05-25T09:18:40.689Z,3800.00
2019-05-25T09:19:40.649Z,3860.00
2019-05-25T09:20:40.651Z,3872.00
2019-05-25T09:21:40.654Z,3868.00
2019-05-25T09:22:40.644Z,3916.00
2019-05-25T09:23:40.603Z,3968.00
2019-05-25T09:24:40.593Z,3976.00
2019-05-25T09:25:40.588Z,4064.00
2019-05-25T09:26:40.614Z,3976.00
2019-05-25T09:27:40.557Z,4064.00
2019-05-25T09:28:40.549Z,3932.00
2019-05-25T09:29:40.534Z,3764.00
2019-05-25T09:30:40.528Z,3704.00
2019-05-25T09:31:40.538Z,3576.00
2019-05-25T09:32:40.532Z,3552.00
2019-05-25T09:33:40.488Z,3656.00
2019-05-25T09:34:40.479Z,3648.00
2019-05-25T09:35:40.522Z,3552.00
2019-05-25T09:36:40.463Z,3480.00
2019-05-25T09:37:40.449Z,3444.00
2019-05-25T09:38:43.274Z,3440.00
2019-05-25T09:39:40.436Z,3464.00
2019-05-25T09:40:40.428Z,3464.00
2019-05-25T09:41:40.400Z,3468.00
2019-05-25T09:42:40.604Z,3428.00
2019-05-25T09:43:40.375Z,3396.00
2019-05-25T09:44:40.370Z,3380.00
2019-05-25T09:45:40.353Z,3404.00
2019-05-25T09:46:40.365Z,3372.00
2019-05-25T09:47:40.346Z,3412.00
2019-05-25T09:48:40.324Z,3428.00
2019-05-25T09:49:40.310Z,3432.00
2019-05-25T09:50:40.322Z,3400.00
2019-05-25T09:51:40.286Z,3368.00
2019-05-25T09:52:40.273Z,3364.00
2019-05-25T09:53:40.284Z,3388.00
2019-05-25T09:54:40.251Z,3428.00
2019-05-25T09:55:40.243Z,3408.00
2019-05-25T09:56:40.236Z,3332.00
2019-05-25T09:57:41.749Z,3288.00
2019-05-25T09:58:40.205Z,3232.00
2019-05-25T09:59:40.196Z,3236.00
2019-05-25T10:00:40.680Z,3216.00
2019-05-25T10:01:40.172Z,3160.00
2019-05-25T10:02:40.286Z,3080.00
2019-05-25T10:03:40.148Z,3016.00
2019-05-25T10:04:40.138Z,2972.00
2019-05-25T10:05:40.126Z,2960.00
2019-05-25T10:06:40.114Z,2980.00
2019-05-25T10:07:40.123Z,2984.00
2019-05-25T10:08:40.096Z,2944.00
2019-05-25T10:09:40.392Z,2908.00
2019-05-25T10:10:40.088Z,2888.00
2019-05-25T10:11:40.068Z,2896.00
2019-05-25T10:12:40.047Z,2928.00
2019-05-25T10:13:40.036Z,2980.00
2019-05-25T10:14:40.025Z,3052.00
2019-05-25T10:15:40.038Z,3104.00
2019-05-25T10:16:40.003Z,3160.00
2019-05-25T10:17:40.012Z,3168.00
2019-05-25T10:18:39.981Z,3148.00
2019-05-25T10:19:39.972Z,3144.00
2019-05-25T10:20:39.956Z,3168.00
2019-05-25T10:21:39.946Z,3268.00
2019-05-25T10:22:39.957Z,3408.00
2019-05-25T10:23:39.924Z,3576.00
2019-05-25T10:24:39.911Z,3580.00
2019-05-25T10:25:39.901Z,3552.00
2019-05-25T10:26:39.893Z,3564.00
2019-05-25T10:27:39.895Z,3632.00
2019-05-25T10:28:39.873Z,3704.00
2019-05-25T10:29:39.858Z,3740.00
2019-05-25T10:30:39.847Z,3744.00
2019-05-25T10:31:39.833Z,3776.00
2019-05-25T10:32:39.836Z,3808.00
2019-05-25T10:33:39.809Z,3892.00
2019-05-25T10:34:39.821Z,4004.00
2019-05-25T10:35:39.788Z,4240.00
2019-05-25T10:36:39.776Z,4420.00
2019-05-25T10:37:39.800Z,4436.00
2019-05-25T10:38:39.754Z,4412.00
2019-05-25T10:39:39.746Z,4400.00
2019-05-25T10:40:39.785Z,4288.00
2019-05-25T10:41:39.719Z,4160.00
2019-05-25T10:42:39.731Z,4168.00
2019-05-25T10:43:39.698Z,4248.00
2019-05-25T10:44:39.686Z,4364.00
2019-05-25T10:45:39.675Z,4452.00
2019-05-25T10:46:39.662Z,4408.00
2019-05-25T10:47:39.673Z,4364.00
2019-05-25T10:48:39.639Z,4388.00
2019-05-25T10:49:39.629Z,4540.00
2019-05-25T10:50:39.643Z,4860.00
2019-05-25T10:51:39.606Z,5248.00
2019-05-25T10:52:39.604Z,5596.00
2019-05-25T10:53:39.584Z,5920.00
2019-05-25T10:54:39.572Z,6288.00
2019-05-25T10:55:39.583Z,6588.00
2019-05-25T10:56:39.552Z,6352.00
2019-05-25T10:57:39.572Z,6328.00
2019-05-25T10:58:39.526Z,6276.00
2019-05-25T10:59:51.942Z,6324.00
2019-05-25T11:00:40.565Z,6356.00
2019-05-25T11:01:39.557Z,6408.00
2019-05-25T11:02:39.503Z,6484.00
2019-05-25T11:03:39.471Z,6552.00
2019-05-25T11:04:39.459Z,6604.00
2019-05-25T11:05:39.448Z,6708.00
2019-05-25T11:06:39.437Z,6824.00
2019-05-25T11:07:39.453Z,6848.00
2019-05-25T11:08:39.421Z,7172.00
2019-05-25T11:09:39.424Z,6856.00
2019-05-25T11:10:39.395Z,6892.00
2019-05-25T11:11:39.381Z,6640.00
2019-05-25T11:12:39.369Z,6308.00
2019-05-25T11:13:39.359Z,6016.00
2019-05-25T11:14:39.366Z,5952.00
2019-05-25T11:15:39.336Z,6108.00
2019-05-25T11:16:39.325Z,6096.00
2019-05-25T11:17:39.335Z,6164.00
2019-05-25T11:18:39.302Z,6176.00
2019-05-25T11:19:39.292Z,6416.00
2019-05-25T11:20:39.282Z,6468.00
2019-05-25T11:21:39.269Z,7232.00
2019-05-25T11:22:39.288Z,6476.00
2019-05-25T11:23:39.254Z,6636.00
2019-05-25T11:24:39.235Z,6308.00
2019-05-25T11:25:39.223Z,6136.00
2019-05-25T11:26:39.212Z,6140.00
2019-05-25T11:27:39.287Z,6408.00
2019-05-25T11:28:39.191Z,7144.00
2019-05-25T11:29:39.199Z,6808.00
2019-05-25T11:30:39.168Z,6768.00
2019-05-25T11:31:39.173Z,7344.00
2019-05-25T11:32:39.205Z,6824.00
2019-05-25T11:33:39.156Z,6656.00
2019-05-25T11:34:39.146Z,6576.00
2019-05-25T11:35:39.113Z,6456.00
2019-05-25T11:36:39.119Z,6296.00
2019-05-25T11:37:39.092Z,6252.00
2019-05-25T11:38:39.104Z,6152.00
2019-05-25T11:39:39.070Z,6116.00
2019-05-25T11:40:39.058Z,6144.00
2019-05-25T11:41:39.045Z,6168.00
2019-05-25T11:42:39.035Z,6128.00
2019-05-25T11:43:39.045Z,6084.00
2019-05-25T11:44:39.011Z,6264.00
2019-05-25T11:45:39.000Z,6464.00
2019-05-25T11:46:38.989Z,6612.00
2019-05-25T11:47:38.977Z,6692.00
2019-05-25T11:48:38.993Z,6468.00
2019-05-25T11:49:38.954Z,6368.00
2019-05-25T11:50:38.945Z,6216.00
2019-05-25T11:51:38.933Z,6132.00
2019-05-25T11:52:39.129Z,6144.00
2019-05-25T11:53:38.929Z,6064.00
2019-05-25T11:54:38.900Z,5928.00
2019-05-25T11:55:38.889Z,5976.00
2019-05-25T11:56:38.878Z,5960.00
2019-05-25T11:57:38.866Z,5560.00
2019-05-25T11:58:46.858Z,5128.00
2019-05-25T11:59:39.841Z,4744.00
2019-05-25T12:00:38.832Z,4400.00
2019-05-25T12:01:38.822Z,4192.00
2019-05-25T12:02:38.844Z,4060.00
2019-05-25T12:03:38.799Z,4012.00
2019-05-25T12:04:38.787Z,4076.00
2019-05-25T12:05:38.775Z,4180.00
2019-05-25T12:06:38.765Z,4260.00
2019-05-25T12:07:38.855Z,4400.00
2019-05-25T12:08:38.766Z,4528.00
2019-05-25T12:09:38.754Z,4576.00
2019-05-25T12:10:38.720Z,4472.00
2019-05-25T12:11:38.709Z,4432.00
2019-05-25T12:12:38.697Z,4388.00
2019-05-25T12:13:38.737Z,4348.00
2019-05-25T12:14:38.674Z,4348.00
2019-05-25T12:15:38.664Z,4412.00
2019-05-25T12:16:38.652Z,4516.00
2019-05-25T12:17:38.643Z,4652.00
2019-05-25T12:18:38.655Z,4768.00
2019-05-25T12:19:38.618Z,4724.00
2019-05-25T12:20:38.606Z,4580.00
2019-05-25T12:21:38.621Z,4428.00
2019-05-25T12:22:38.584Z,4340.00
2019-05-25T12:23:38.572Z,4368.00
2019-05-25T12:24:38.584Z,4516.00